Quetzalcoatl International Airport
MMNL : now visible

Airfield :











YOU CAN JOIN US ON...

 
LOGIN :

Register | Disclaimer

   EN    FR    IT 

 









Legend :    VFR   Marginal VFR   IFR   Intensive IFR   Very Intensive IFR
Visi :
Ceiling :
>= 8 km
>= 3000ft
5 to 8 km
1000 to 3000 ft
1500m to 5 km
500 to 1000 ft
800 to 1500m
200 to 500 ft
< 800m
< 200 ft
Symbols :   Thunderstorms  Fog  Heavy snow  Heavy precipitations  Wind > 20 kt






- Airport Elevation : 484 ft
- IATA code : NLD


MMNL - Quetzalcoatl International

EXPIRED METARs :
  • 190040Z 09013KT 10SM SKC 33/21 A2973

TAF TAF MMNL
Valid from the 18 at 18:00 until the 19 at 18:00 UTC


181735Z 1818/1918 12012KT P6SM BKN030
FM190600 06010KT P6SM VC RA OVC020
FM191200 02020KT 6SM -RA OVC030
TEMPO 1914/1918 3SM RA BKN010CB
MMFR FIR / North America



MET'MAP, your aeronautical weather chart ! - Copyright ORBIFLY December 2007 - Disclaimer

ORBIFLY MET'MAP TEAM :

Programming & Development : Alexandra Zaïnal
Original concept : Baudouin d'Aumeries
Technical & hardware support : Manuel Goepfert
Assistance : Marc-Olivier Méhu




SOURCES & CREDITS :

   NOAA       Earth
Advisory